Time;durP1;ratioP1;P1;durP2;ratioP2;P2;SDS_P1;SDS_P2;PMS_P1;PMS_P2;Temp;Humidity;BMP_temperature;BMP_pressure;BME280_temperature;BME280_humidity;BME280_pressure;Samples;Min_cycle;Max_cycle;Signal;HPM_P1;HPM_P2
2023/03/26 11:26:44;;;;;;;;;;;;;;;10.02;71.07;96887.88;6095359;23;19940;31
2023/03/26 11:29:12;;;;;;;;;;;;;;;10.08;70.95;96874.25;4946830;28;19926;-60
2023/03/26 11:31:43;;;;;;;;;;;;;;;10.23;71.58;96859.78;4961383;28;19922;-62
2023/03/26 11:34:10;;;;;;;;;;;;;;;10.34;71.30;96861.47;4951413;28;19918;-61
2023/03/26 11:36:36;;;;;;;;;;;;;;;10.59;71.65;96856.66;4952946;28;20343;-61
2023/03/26 11:39:03;;;;;;;;;;;;;;;10.85;71.09;96854.31;4947442;28;19919;-62
2023/03/26 11:41:31;;;;;;;;;;;;;;;10.93;71.64;96860.50;4935360;28;19939;-61
2023/03/26 11:43:58;;;;;;;;;;;;;;;10.97;71.19;96853.19;4939831;28;19923;-62
2023/03/26 11:46:24;;;;;;;;;;;;;;;11.00;69.75;96858.16;4943526;28;20400;-62
2023/03/26 11:48:49;;;;;;;;;;;;;;;11.03;69.14;96857.88;4935689;28;19922;-62
2023/03/26 11:51:22;;;;;;;;;;;;;;;11.06;68.96;96849.72;4944543;28;19925;-63
2023/03/26 11:53:47;;;;;;;;;;;;;;;11.09;68.74;96846.00;4950219;28;19918;-63
2023/03/26 11:56:13;;;;;;;;;;;;;;;11.04;69.07;96843.78;4951144;28;20410;-62
2023/03/26 11:58:38;;;;;;;;;;;;;;;11.04;70.26;96856.91;4942861;28;19914;-60
2023/03/26 12:01:05;;;;;;;;;;;;;;;11.02;69.09;96855.41;4945511;28;20196;-62
2023/03/26 12:03:30;;;;;;;;;;;;;;;10.77;69.21;96851.56;4936423;29;19914;-62
2023/03/26 12:05:59;;;;;;;;;;;;;;;10.82;69.36;96838.88;4953417;28;19937;-63
2023/03/26 12:08:29;;;;;;;;;;;;;;;10.91;70.20;96848.53;4953465;28;20439;-63
2023/03/26 12:10:59;;;;;;;;;;;;;;;11.01;69.57;96849.34;4948263;28;19919;-61
2023/03/26 12:13:28;;;;;;;;;;;;;;;11.28;68.82;96855.59;4945266;28;19945;-63
2023/03/26 12:15:56;;;;;;;;;;;;;;;11.33;69.44;96853.41;4943862;28;20500;-61
2023/03/26 12:18:25;;;;;;;;;;;;;;;11.43;68.20;96843.69;4953597;28;20516;-62
2023/03/26 12:21:08;;;;;;;;;;;;;;;11.48;67.70;96836.22;4945553;28;19938;-62
2023/03/26 12:23:43;;;;;;;;;;;;;;;11.57;67.24;96832.72;4951563;28;20300;-62
2023/03/26 12:26:19;;;;;;;;;;;;;;;11.70;68.83;96815.78;4944443;28;19922;-61
2023/03/26 12:28:48;;;;;;;;;;;;;;;12.26;67.26;96820.06;4952997;28;20017;-63
2023/03/26 12:31:17;;;;;;;;;;;;;;;12.46;66.64;96811.06;4945828;28;19919;-62
2023/03/26 12:33:43;;;;;;;;;;;;;;;13.23;63.72;96798.13;4941014;28;19915;-63
2023/03/26 12:36:19;;;;;;;;;;;;;;;13.24;63.16;96802.44;4945160;28;19918;-62
2023/03/26 12:38:44;;;;;;;;;;;;;;;14.11;60.51;96784.66;4946821;28;19922;-61
2023/03/26 12:41:10;;;;;;;;;;;;;;;14.72;58.20;96772.88;4943050;28;20435;-62
2023/03/26 12:43:38;;;;;;;;;;;;;;;15.24;57.38;96771.63;4957454;28;19923;-62
2023/03/26 12:46:19;;;;;;;;;;;;;;;16.03;54.27;96769.84;4942377;28;20027;-63
2023/03/26 12:48:44;;;;;;;;;;;;;;;16.54;53.81;96763.06;4958127;28;19973;-62
2023/03/26 12:51:13;;;;;;;;;;;;;;;17.03;49.47;96753.88;4947411;28;19923;-63
2023/03/26 12:53:47;;;;;;;;;;;;;;;17.44;48.25;96750.78;4956252;28;20004;-63
2023/03/26 12:56:20;;;;;;;;;;;;;;;17.58;45.50;96749.13;4963218;28;20384;-63
2023/03/26 12:58:49;;;;;;;;;;;;;;;17.33;46.23;96744.13;4964971;28;20384;-64
2023/03/26 13:01:24;;;;;;;;;;;;;;;17.64;47.08;96730.66;4971531;28;20430;-63
2023/03/26 13:03:58;;;;;;;;;;;;;;;18.18;46.17;96730.28;4951133;28;20009;-62
2023/03/26 13:06:49;;;;;;;;;;;;;;;18.12;45.26;96736.34;4971923;28;19921;-63
2023/03/26 13:09:24;;;;;;;;;;;;;;;18.98;43.49;96728.34;4967986;28;19996;-63
2023/03/26 13:11:54;;;;;;;;;;;;;;;19.30;42.90;96731.41;4950775;28;19919;-63
2023/03/26 13:14:22;;;;;;;;;;;;;;;19.76;40.71;96729.00;4968365;28;19915;-63
2023/03/26 13:16:53;;;;;;;;;;;;;;;20.08;39.06;96719.47;4965633;28;19923;-63
2023/03/26 13:19:21;;;;;;;;;;;;;;;20.37;38.95;96725.47;4975671;28;19914;-63
2023/03/26 13:21:58;;;;;;;;;;;;;;;20.38;39.45;96711.16;4975121;28;19976;-63
2023/03/26 13:24:33;;;;;;;;;;;;;;;19.82;38.96;96714.06;4965038;28;21564;-63
2023/03/26 13:27:07;;;;;;;;;;;;;;;20.21;38.44;96715.22;4954136;28;20312;-58
2023/03/26 13:29:45;;;;;;;;;;;;;;;19.97;38.83;96713.94;4955827;29;20384;-63
2023/03/26 13:32:13;;;;;;;;;;;;;;;20.24;36.82;96693.53;4947785;28;19926;-63
2023/03/26 13:34:43;;;;;;;;;;;;;;;20.76;36.60;96691.94;4965037;28;19914;-63
2023/03/26 13:37:11;;;;;;;;;;;;;;;21.27;35.19;96688.56;4956705;28;19930;-63
2023/03/26 13:39:49;;;;;;;;;;;;;;;20.62;34.86;96707.91;4945060;28;20034;-64
2023/03/26 13:42:20;;;;;;;;;;;;;;;18.98;37.83;96688.50;4944384;28;19923;-64
2023/03/26 13:44:45;;;;;;;;;;;;;;;18.90;38.82;96693.97;4937567;28;19915;-61
2023/03/26 13:47:13;;;;;;;;;;;;;;;19.12;37.13;96679.56;4937536;29;19970;-62
2023/03/26 13:49:45;;;;;;;;;;;;;;;18.13;39.42;96678.78;4937444;29;19926;-62
2023/03/26 13:52:12;;;;;;;;;;;;;;;17.37;39.98;96665.09;4947462;28;19919;-63
2023/03/26 13:54:43;;;;;;;;;;;;;;;16.77;41.74;96669.59;4954997;28;19918;-63
2023/03/26 13:57:11;;;;;;;;;;;;;;;16.11;42.96;96687.84;4957591;28;19922;-62
2023/03/26 13:59:40;;;;;;;;;;;;;;;15.57;44.53;96683.34;4963873;28;19930;-62
2023/03/26 14:02:27;;;;;;;;;;;;;;;15.05;45.36;96685.72;4947750;28;19919;-63
2023/03/26 14:04:53;;;;;;;;;;;;;;;15.22;46.78;96682.03;4964505;28;19944;-64
2023/03/26 14:07:22;;;;;;;;;;;;;;;14.75;47.55;96680.16;4955432;29;19918;-63
2023/03/26 14:09:47;;;;;;;;;;;;;;;14.08;50.27;96687.47;4954703;29;20269;-62
2023/03/26 14:12:24;;;;;;;;;;;;;;;13.52;52.53;96695.06;4958605;28;19918;-62
2023/03/26 14:14:52;;;;;;;;;;;;;;;12.68;57.17;96719.50;4955687;28;19918;-63
2023/03/26 14:17:20;;;;;;;;;;;;;;;12.58;61.85;96707.25;4967486;28;20383;-61
2023/03/26 14:19:45;;;;;;;;;;;;;;;14.92;57.50;96680.97;4967365;28;19926;-62
2023/03/26 14:22:19;;;;;;;;;;;;;;;16.17;51.51;96679.16;4955834;28;20002;-62
2023/03/26 14:24:50;;;;;;;;;;;;;;;17.20;50.06;96662.63;4963423;28;20454;-62
2023/03/26 14:27:23;;;;;;;;;;;;;;;18.17;47.19;96658.81;4956170;29;19922;-62
2023/03/26 14:29:53;;;;;;;;;;;;;;;19.01;44.44;96648.25;4954096;28;20091;-63
2023/03/26 14:32:23;;;;;;;;;;;;;;;19.65;42.11;96644.47;4958916;28;20352;-64
2023/03/26 14:35:08;;;;;;;;;;;;;;;20.32;41.04;96640.06;4967271;28;19914;-63
2023/03/26 14:37:39;;;;;;;;;;;;;;;20.85;38.26;96637.38;4968357;28;19922;-64
2023/03/26 14:40:24;;;;;;;;;;;;;;;21.01;37.33;96626.28;4963425;28;19923;-63
2023/03/26 14:42:50;;;;;;;;;;;;;;;21.50;36.16;96627.56;4950848;28;19925;-64
2023/03/26 14:45:18;;;;;;;;;;;;;;;21.91;35.45;96634.31;4944211;28;19941;-62
2023/03/26 14:48:04;;;;;;;;;;;;;;;22.32;33.74;96617.00;4963258;28;19925;-63
2023/03/26 14:50:34;;;;;;;;;;;;;;;22.68;33.55;96621.66;4955148;28;20368;-62
2023/03/26 14:52:59;;;;;;;;;;;;;;;22.78;32.88;96631.84;4955030;28;19962;-64
2023/03/26 14:55:37;;;;;;;;;;;;;;;22.21;32.48;96615.06;4970073;28;19922;-62
2023/03/26 14:58:21;;;;;;;;;;;;;;;22.81;32.88;96614.53;4966776;28;19964;-62
2023/03/26 15:01:05;;;;;;;;;;;;;;;23.11;31.72;96604.75;4952651;28;19919;-64
2023/03/26 15:03:37;;;;;;;;;;;;;;;23.46;31.20;96612.16;4941880;28;19922;-62
2023/03/26 15:06:02;;;;;;;;;;;;;;;23.84;31.12;96606.53;4945639;28;19925;-63
2023/03/26 15:08:37;;;;;;;;;;;;;;;24.15;30.31;96601.94;4942524;28;20299;-63
2023/03/26 15:11:21;;;;;;;;;;;;;;;24.15;29.37;96600.09;4950592;28;19925;-62
2023/03/26 15:13:46;;;;;;;;;;;;;;;24.77;28.60;96594.31;4958182;28;19914;-62
2023/03/26 15:16:12;;;;;;;;;;;;;;;24.97;27.60;96582.41;4971513;28;19934;-63
2023/03/26 15:18:52;;;;;;;;;;;;;;;25.17;27.45;96595.47;4950627;28;19919;-63
2023/03/26 15:21:17;;;;;;;;;;;;;;;25.17;27.64;96595.47;4940289;28;19926;-64
2023/03/26 15:23:47;;;;;;;;;;;;;;;24.25;27.10;96596.84;4949272;28;19914;-64
2023/03/26 15:26:35;;;;;;;;;;;;;;;23.30;25.60;96613.59;4951828;28;19927;-63
2023/03/26 15:29:11;;;;;;;;;;;;;;;23.48;26.89;96599.38;4945387;28;19922;-63
2023/03/26 15:31:36;;;;;;;;;;;;;;;24.04;33.66;96597.38;4957409;28;19923;-64
2023/03/26 15:34:11;;;;;;;;;;;;;;;24.15;31.11;96599.28;4958333;28;19915;-65
2023/03/26 15:36:37;;;;;;;;;;;;;;;23.65;29.92;96594.22;4933301;29;19923;-62
2023/03/26 15:39:08;;;;;;;;;;;;;;;23.20;30.71;96603.44;4936477;28;20009;-63
2023/03/26 15:41:45;;;;;;;;;;;;;;;23.18;24.51;96597.47;4952573;28;19925;-64
2023/03/26 15:44:17;;;;;;;;;;;;;;;22.80;24.49;96605.69;4963013;28;19965;-62
2023/03/26 15:46:45;;;;;;;;;;;;;;;21.94;24.69;96599.19;4954273;29;19914;-63
2023/03/26 15:49:15;;;;;;;;;;;;;;;21.06;25.64;96599.00;4952012;28;20182;-63
2023/03/26 15:51:49;;;;;;;;;;;;;;;21.11;26.26;96588.53;4947451;28;19918;-63
2023/03/26 15:54:33;;;;;;;;;;;;;;;20.91;26.45;96596.59;4958649;28;20404;-63
2023/03/26 15:57:17;;;;;;;;;;;;;;;20.66;26.25;96592.97;4953833;28;20052;-63
2023/03/26 16:00:00;;;;;;;;;;;;;;;20.30;27.54;96602.16;4959903;28;19918;-62
2023/03/26 16:02:28;;;;;;;;;;;;;;;19.91;27.82;96598.47;4941134;28;19989;-64
2023/03/26 16:05:12;;;;;;;;;;;;;;;19.16;28.88;96595.78;4935121;29;19925;-64
2023/03/26 16:07:42;;;;;;;;;;;;;;;18.59;30.73;96596.91;4949744;28;19941;-65
2023/03/26 16:10:10;;;;;;;;;;;;;;;17.92;31.39;96608.00;4946313;28;19918;-62
2023/03/26 16:13:04;;;;;;;;;;;;;;;17.15;32.99;96601.44;4942631;28;19918;-63
2023/03/26 16:15:31;;;;;;;;;;;;;;;16.49;35.04;96605.81;4916383;29;19919;-62
2023/03/26 16:18:05;;;;;;;;;;;;;;;16.22;36.20;96610.69;4956275;28;19966;-63
2023/03/26 16:20:34;;;;;;;;;;;;;;;16.12;36.34;96615.41;4952975;28;19919;-62
2023/03/26 16:23:01;;;;;;;;;;;;;;;15.86;36.59;96611.34;4968665;28;19918;-62
2023/03/26 16:25:34;;;;;;;;;;;;;;;15.44;37.03;96607.28;4942853;28;19925;-61
2023/03/26 16:28:06;;;;;;;;;;;;;;;15.18;38.59;96612.06;4961888;28;19925;-61
2023/03/26 16:30:32;;;;;;;;;;;;;;;14.88;39.38;96622.41;4962189;28;20410;-62
2023/03/26 16:33:04;;;;;;;;;;;;;;;14.86;40.52;96611.19;4956664;28;19976;-63
2023/03/26 16:35:52;;;;;;;;;;;;;;;14.67;39.80;96614.22;4949095;28;19946;-62
2023/03/26 16:38:20;;;;;;;;;;;;;;;14.42;39.94;96609.00;4956775;28;19961;-62
2023/03/26 16:40:49;;;;;;;;;;;;;;;14.27;41.77;96613.28;4942704;28;20013;-62
2023/03/26 16:43:21;;;;;;;;;;;;;;;14.16;41.98;96621.53;4946202;29;19918;-62
2023/03/26 16:45:58;;;;;;;;;;;;;;;13.97;42.39;96620.91;4954985;28;19925;-62
2023/03/26 16:48:36;;;;;;;;;;;;;;;13.76;43.59;96626.66;4966352;28;20443;-62
2023/03/26 19:10:41;;;;;;;;;;;;;;;9.57;78.47;96725.97;5984362;23;20982;-63
2023/03/26 19:13:10;;;;;;;;;;;;;;;10.22;62.97;96724.50;4970789;28;19959;-64
2023/03/26 19:15:36;;;;;;;;;;;;;;;9.80;64.25;96725.72;4963559;28;19922;-63
2023/03/26 19:18:13;;;;;;;;;;;;;;;9.47;64.89;96725.13;4972296;28;20280;-63
2023/03/26 19:20:38;;;;;;;;;;;;;;;9.21;65.49;96730.81;4967772;28;19934;-62
2023/03/26 19:23:04;;;;;;;;;;;;;;;9.07;65.97;96739.03;4958637;28;20430;-61
2023/03/26 19:25:35;;;;;;;;;;;;;;;8.85;67.08;96736.59;4953144;28;19999;-63
2023/03/26 19:28:01;;;;;;;;;;;;;;;8.82;66.96;96734.25;4954880;28;19918;-63
2023/03/26 19:30:30;;;;;;;;;;;;;;;8.82;66.55;96735.06;4955159;28;19925;-63
2023/03/26 19:32:59;;;;;;;;;;;;;;;8.66;68.16;96729.47;4965074;28;20009;-64
2023/03/26 19:35:25;;;;;;;;;;;;;;;8.59;67.98;96729.16;4953188;28;19926;-64
2023/03/26 19:37:50;;;;;;;;;;;;;;;8.44;68.87;96725.22;4953791;28;19918;-64
2023/03/26 19:40:28;;;;;;;;;;;;;;;8.43;69.12;96728.78;4955048;28;20393;-64
2023/03/26 19:42:54;;;;;;;;;;;;;;;8.39;69.37;96725.59;4954956;29;20403;-64
2023/03/26 19:45:20;;;;;;;;;;;;;;;8.39;68.83;96737.84;4967170;28;19918;-64
2023/03/26 19:47:46;;;;;;;;;;;;;;;8.39;69.95;96722.16;4953424;29;19918;-63
2023/03/26 19:50:24;;;;;;;;;;;;;;;8.31;69.93;96743.66;4953897;29;20295;-64
2023/03/26 19:53:05;;;;;;;;;;;;;;;8.29;70.09;96733.34;4954203;29;19941;-64
2023/03/26 19:55:30;;;;;;;;;;;;;;;8.22;69.25;96726.13;4952698;29;19965;-64
2023/03/26 19:57:56;;;;;;;;;;;;;;;8.17;69.67;96734.34;4954442;28;19976;-64
2023/03/26 20:00:24;;;;;;;;;;;;;;;8.16;69.71;96729.28;4952618;28;21448;-64
2023/03/26 20:02:49;;;;;;;;;;;;;;;8.17;70.02;96729.13;4969358;28;19998;-61
2023/03/26 20:05:18;;;;;;;;;;;;;;;8.19;70.10;96729.00;4952243;28;20372;-64
2023/03/26 20:07:43;;;;;;;;;;;;;;;8.20;70.48;96728.88;4946588;29;19918;-64
2023/03/26 20:10:09;;;;;;;;;;;;;;;8.20;70.95;96723.66;4954496;28;19918;-64
2023/03/26 20:12:34;;;;;;;;;;;;;;;8.22;69.92;96731.34;4954303;28;20446;-64
2023/03/26 20:15:00;;;;;;;;;;;;;;;8.21;70.25;96746.19;4952535;29;19918;-64
2023/03/26 20:17:26;;;;;;;;;;;;;;;8.15;69.93;96744.09;4953122;28;19961;-64
2023/03/26 20:19:53;;;;;;;;;;;;;;;8.13;69.87;96737.34;4953553;29;19918;-64
2023/03/26 20:22:22;;;;;;;;;;;;;;;8.07;70.74;96736.06;4953644;28;19918;-64
2023/03/26 20:24:47;;;;;;;;;;;;;;;8.09;70.85;96736.78;4968030;28;19926;-64
2023/03/26 20:27:13;;;;;;;;;;;;;;;8.11;71.08;96734.84;4952968;28;19953;-65
2023/03/26 20:29:38;;;;;;;;;;;;;;;8.13;69.83;96735.56;4953584;29;19926;-64
2023/03/26 20:32:08;;;;;;;;;;;;;;;8.14;70.41;96728.56;4951141;28;19985;-65
2023/03/26 20:34:33;;;;;;;;;;;;;;;8.12;69.74;96735.66;4967754;28;19915;-64
2023/03/26 20:36:58;;;;;;;;;;;;;;;8.05;70.12;96735.34;4952220;29;19926;-64
2023/03/26 20:39:24;;;;;;;;;;;;;;;8.00;70.73;96729.69;4953871;29;19918;-64
2023/03/26 20:41:49;;;;;;;;;;;;;;;7.96;70.63;96736.13;4954067;28;19918;-64
2023/03/26 20:44:16;;;;;;;;;;;;;;;8.02;70.88;96740.84;4954176;29;19918;-65
2023/03/26 20:46:41;;;;;;;;;;;;;;;7.96;71.16;96738.72;4967608;28;19918;-64
2023/03/26 20:49:08;;;;;;;;;;;;;;;7.98;71.02;96740.25;4952867;28;19954;-64
2023/03/26 20:51:36;;;;;;;;;;;;;;;7.96;70.37;96741.34;4953778;28;19914;-65
2023/03/26 20:54:02;;;;;;;;;;;;;;;7.97;71.12;96743.00;4953623;29;19915;-64
2023/03/26 20:56:27;;;;;;;;;;;;;;;7.98;70.92;96731.56;4952472;28;20018;-64
2023/03/26 20:58:53;;;;;;;;;;;;;;;7.95;70.60;96743.13;4952736;29;19919;-65
2023/03/26 21:01:19;;;;;;;;;;;;;;;8.00;70.75;96742.75;4952689;28;19918;-65
2023/03/26 21:03:45;;;;;;;;;;;;;;;7.97;70.81;96743.81;4953955;28;19921;-65
2023/03/26 21:06:12;;;;;;;;;;;;;;;7.96;71.40;96747.38;4953845;28;19915;-65
2023/03/26 21:08:37;;;;;;;;;;;;;;;7.99;71.50;96744.53;4966332;28;19952;-64
2023/03/26 21:11:03;;;;;;;;;;;;;;;7.93;71.41;96752.03;4953479;28;19918;-64
2023/03/26 21:13:38;;;;;;;;;;;;;;;7.92;70.86;96755.59;4968736;28;19914;-65
2023/03/26 21:16:04;;;;;;;;;;;;;;;7.92;71.14;96761.66;4967805;28;19926;-65
2023/03/26 21:18:29;;;;;;;;;;;;;;;7.94;71.50;96751.06;4952828;28;19927;-63
2023/03/26 21:21:14;;;;;;;;;;;;;;;7.92;71.76;96751.19;4968213;28;20434;-64
2023/03/26 21:23:40;;;;;;;;;;;;;;;8.03;70.99;96758.16;4952124;28;19919;-63
2023/03/26 21:26:08;;;;;;;;;;;;;;;7.98;71.04;96769.00;4968371;28;19918;-65
2023/03/26 21:28:52;;;;;;;;;;;;;;;8.00;70.44;96759.22;4952766;29;19926;-66
2023/03/26 21:31:18;;;;;;;;;;;;;;;7.95;70.28;96761.41;4968330;28;19919;-65
2023/03/26 21:33:44;;;;;;;;;;;;;;;7.91;70.35;96759.13;4969275;28;19921;-65
2023/03/26 21:36:10;;;;;;;;;;;;;;;7.83;71.06;96760.59;4957142;29;19996;-65
2023/03/26 21:38:36;;;;;;;;;;;;;;;7.83;71.26;96751.94;4955009;28;19926;-65
2023/03/26 21:41:02;;;;;;;;;;;;;;;7.83;71.04;96757.16;4957024;28;19914;-65
2023/03/26 21:43:27;;;;;;;;;;;;;;;7.81;70.97;96752.06;4957238;29;20307;-65
2023/03/26 21:45:56;;;;;;;;;;;;;;;7.83;71.18;96747.53;4956920;29;19915;-65
2023/03/26 21:48:21;;;;;;;;;;;;;;;7.81;71.29;96748.59;4955946;28;19961;-65
2023/03/26 21:50:46;;;;;;;;;;;;;;;7.83;71.27;96746.72;4956835;28;19915;-64
2023/03/26 21:53:14;;;;;;;;;;;;;;;7.79;71.03;96751.34;4955992;29;20387;-65
2023/03/26 21:55:48;;;;;;;;;;;;;;;7.75;70.43;96743.91;4971454;28;19915;-65
2023/03/26 21:58:19;;;;;;;;;;;;;;;7.74;71.66;96750.91;4969649;28;19922;-66
2023/03/26 22:00:59;;;;;;;;;;;;;;;7.75;70.83;96757.78;4956553;28;19973;-65
2023/03/26 22:03:36;;;;;;;;;;;;;;;7.74;70.84;96763.97;4956897;29;19919;-63
2023/03/26 22:06:12;;;;;;;;;;;;;;;7.72;70.77;96765.03;4971576;28;19915;-64
2023/03/26 22:08:40;;;;;;;;;;;;;;;7.74;71.21;96758.75;4968962;28;19929;-65
2023/03/26 22:11:06;;;;;;;;;;;;;;;7.72;71.32;96751.97;4971198;28;20001;-65
2023/03/26 22:13:34;;;;;;;;;;;;;;;7.76;71.51;96751.59;4971544;28;20020;-66
2023/03/26 22:15:59;;;;;;;;;;;;;;;7.73;71.08;96749.22;4956382;28;20049;-65
2023/03/26 22:18:24;;;;;;;;;;;;;;;7.75;71.65;96747.34;4955680;29;20020;-65
2023/03/26 22:20:50;;;;;;;;;;;;;;;7.77;71.47;96747.19;4955397;28;20395;-65
2023/03/26 22:23:15;;;;;;;;;;;;;;;7.74;71.09;96748.28;4970302;28;19961;-66
2023/03/26 22:25:41;;;;;;;;;;;;;;;7.73;72.23;96749.22;4954918;29;19915;-65
2023/03/26 22:28:06;;;;;;;;;;;;;;;7.79;71.03;96748.75;4970476;28;19919;-65
2023/03/26 22:30:31;;;;;;;;;;;;;;;7.80;71.36;96745.16;4954872;28;19922;-65
2023/03/26 22:32:57;;;;;;;;;;;;;;;7.83;71.41;96750.16;4971012;28;19921;-65
2023/03/26 22:35:23;;;;;;;;;;;;;;;7.83;71.60;96752.75;4956131;29;19961;-65
2023/03/26 22:37:48;;;;;;;;;;;;;;;7.82;70.71;96769.38;4953223;29;20432;-64
2023/03/26 22:40:13;;;;;;;;;;;;;;;7.75;71.49;96760.38;4955565;28;20584;-66
2023/03/26 22:42:39;;;;;;;;;;;;;;;7.73;71.42;96764.06;4970846;28;20303;-66
2023/03/26 22:45:04;;;;;;;;;;;;;;;7.73;72.01;96762.28;4969882;28;19930;-65
2023/03/26 22:47:32;;;;;;;;;;;;;;;7.67;72.45;96767.16;4955170;28;19921;-65
2023/03/26 22:49:57;;;;;;;;;;;;;;;7.63;72.94;96760.53;4954178;29;19918;-65
2023/03/26 22:52:22;;;;;;;;;;;;;;;7.67;73.34;96762.75;4954789;28;19941;-65
2023/03/26 22:54:48;;;;;;;;;;;;;;;7.60;73.89;96769.41;4955753;29;19914;-65
2023/03/26 22:57:13;;;;;;;;;;;;;;;7.57;73.56;96767.03;4955657;29;19933;-66
2023/03/26 22:59:38;;;;;;;;;;;;;;;7.55;74.54;96766.34;4946802;28;19996;-65
2023/03/26 23:02:04;;;;;;;;;;;;;;;7.54;74.96;96762.09;4955550;28;20017;-65
2023/03/26 23:04:30;;;;;;;;;;;;;;;7.53;74.47;96769.06;4955656;29;20000;-66
2023/03/26 23:06:55;;;;;;;;;;;;;;;7.52;74.69;96769.22;4953578;29;19922;-65
2023/03/26 23:09:20;;;;;;;;;;;;;;;7.52;75.89;96770.03;4968927;28;19925;-65
2023/03/26 23:11:46;;;;;;;;;;;;;;;7.49;75.62;96764.22;4970287;28;19918;-65
2023/03/26 23:14:11;;;;;;;;;;;;;;;7.42;76.42;96768.28;4955562;29;19918;-65
2023/03/26 23:16:37;;;;;;;;;;;;;;;7.39;76.55;96771.94;4954701;29;19983;-63
2023/03/26 23:19:02;;;;;;;;;;;;;;;7.37;76.71;96777.28;4954748;29;19950;-66
2023/03/26 23:21:27;;;;;;;;;;;;;;;7.39;77.62;96774.56;4953387;28;19918;-65
2023/03/26 23:23:53;;;;;;;;;;;;;;;7.42;77.42;96778.72;4955281;29;20264;-65
2023/03/26 23:26:18;;;;;;;;;;;;;;;7.44;77.53;96779.44;4955286;29;20291;-66
2023/03/26 23:28:43;;;;;;;;;;;;;;;7.38;77.20;96778.94;4969362;28;19926;-65
2023/03/26 23:31:09;;;;;;;;;;;;;;;7.36;77.46;96774.78;4968941;28;19918;-64
2023/03/26 23:33:35;;;;;;;;;;;;;;;7.30;78.42;96781.34;4970050;28;19915;-65
2023/03/26 23:36:03;;;;;;;;;;;;;;;7.30;78.77;96786.53;4968846;28;19918;-66
2023/03/26 23:38:28;;;;;;;;;;;;;;;7.25;79.51;96783.44;4968634;28;19930;-64
2023/03/26 23:40:53;;;;;;;;;;;;;;;7.30;79.54;96781.34;4953980;28;19918;-65
2023/03/26 23:43:19;;;;;;;;;;;;;;;7.30;79.35;96786.53;4954820;29;19919;-65
2023/03/26 23:45:44;;;;;;;;;;;;;;;7.26;80.13;96785.13;4954699;29;19922;-65
2023/03/26 23:48:09;;;;;;;;;;;;;;;7.26;79.83;96785.13;4969088;28;19918;-66
2023/03/26 23:50:36;;;;;;;;;;;;;;;7.28;79.88;96785.81;4967752;28;20013;-65
2023/03/26 23:53:02;;;;;;;;;;;;;;;7.30;79.93;96781.34;4954724;28;19915;-64
2023/03/26 23:55:27;;;;;;;;;;;;;;;7.28;80.49;96782.38;4953943;28;19973;-65
2023/03/26 23:57:53;;;;;;;;;;;;;;;7.26;80.04;96785.13;4953482;28;19922;-65
